Time,TemperatureF,DewpointF,PressureIn,WindDirection,WindDirectionDegrees,WindSpeedMPH,WindSpeedGustMPH,Humidity,HourlyPrecipIn,Conditions,Clouds,dailyrainin,SoftwareType,DateUTC
2013-07-10 00:02:00,83.0,70.0,29.76,NE,36,1.0,9.0,65,0.00,,,0.00,,2013-07-10 05:02:00,
2013-07-10 00:11:00,82.0,69.0,29.76,NNE,22,1.0,9.0,64,0.00,,,0.00,,2013-07-10 05:11:00,
2013-07-10 00:22:00,82.0,69.0,29.77,North,5,0.0,7.0,64,0.00,,,0.00,,2013-07-10 05:22:00,
2013-07-10 00:32:00,82.0,69.0,29.77,North,5,0.0,7.0,64,0.00,,,0.00,,2013-07-10 05:32:00,
2013-07-10 00:42:00,82.0,69.0,29.77,North,5,0.0,7.0,64,0.00,,,0.00,,2013-07-10 05:42:00,
2013-07-10 00:52:00,81.0,68.0,29.78,NE,38,0.0,4.0,65,0.00,,,0.00,,2013-07-10 05:52:00,
2013-07-10 01:01:00,81.0,68.0,29.78,NE,38,0.0,4.0,65,0.00,,,0.00,,2013-07-10 06:01:00,
2013-07-10 01:11:00,81.0,68.0,29.77,NE,46,1.0,6.0,65,0.00,,,0.00,,2013-07-10 06:11:00,
2013-07-10 01:21:00,81.0,68.0,29.77,NE,46,1.0,6.0,65,0.00,,,0.00,,2013-07-10 06:21:00,
2013-07-10 01:32:00,80.0,68.0,29.77,North,355,0.0,6.0,67,0.00,,,0.00,,2013-07-10 06:32:00,
2013-07-10 01:42:00,80.0,68.0,29.77,North,355,0.0,6.0,67,0.00,,,0.00,,2013-07-10 06:42:00,
2013-07-10 01:52:00,80.0,68.0,29.77,North,355,0.0,6.0,67,0.00,,,0.00,,2013-07-10 06:52:00,
2013-07-10 02:01:00,79.0,68.0,29.79,NNE,17,0.0,2.0,70,0.00,,,0.00,,2013-07-10 07:01:00,
2013-07-10 02:11:00,79.0,68.0,29.79,NNE,33,0.0,4.0,70,0.00,,,0.00,,2013-07-10 07:11:00,
2013-07-10 02:22:00,79.0,68.0,29.79,NNE,33,0.0,4.0,70,0.00,,,0.00,,2013-07-10 07:22:00,
2013-07-10 02:33:00,78.0,68.0,29.80,North,5,0.0,3.0,72,0.00,,,0.00,,2013-07-10 07:33:00,
2013-07-10 02:43:00,78.0,68.0,29.80,North,5,0.0,2.0,72,0.00,,,0.00,,2013-07-10 07:43:00,
2013-07-10 02:53:00,78.0,68.0,29.80,North,5,0.0,2.0,72,0.00,,,0.00,,2013-07-10 07:53:00,
2013-07-10 03:01:00,78.0,68.0,29.80,North,5,0.0,2.0,72,0.00,,,0.00,,2013-07-10 08:01:00,
2013-07-10 03:11:00,77.0,68.0,29.82,North,5,0.0,0.0,73,0.00,,,0.00,,2013-07-10 08:11:00,
2013-07-10 03:22:00,77.0,68.0,29.82,North,5,0.0,0.0,73,0.00,,,0.00,,2013-07-10 08:22:00,
2013-07-10 03:33:00,77.0,67.0,29.83,North,5,0.0,0.0,72,0.00,,,0.00,,2013-07-10 08:33:00,
2013-07-10 03:53:00,76.0,67.0,29.83,North,5,0.0,0.0,74,0.00,,,0.00,,2013-07-10 08:53:00,
2013-07-10 04:02:00,76.0,67.0,29.83,North,5,0.0,0.0,75,0.00,,,0.00,,2013-07-10 09:02:00,
2013-07-10 04:12:00,76.0,68.0,29.83,North,5,0.0,0.0,77,0.00,,,0.00,,2013-07-10 09:12:00,
2013-07-10 04:22:00,76.0,68.0,29.83,North,5,0.0,0.0,77,0.00,,,0.00,,2013-07-10 09:22:00,
2013-07-10 04:32:00,76.0,68.0,29.83,North,5,0.0,0.0,77,0.00,,,0.00,,2013-07-10 09:32:00,
2013-07-10 04:42:00,74.0,67.0,29.83,North,5,0.0,0.0,79,0.00,,,0.00,,2013-07-10 09:42:00,
2013-07-10 04:52:00,74.0,67.0,29.83,North,5,0.0,0.0,80,0.00,,,0.00,,2013-07-10 09:52:00,
2013-07-10 05:01:00,74.0,67.0,29.83,North,5,0.0,0.0,80,0.00,,,0.00,,2013-07-10 10:01:00,
2013-07-10 05:13:00,74.0,67.0,29.83,North,5,0.0,0.0,80,0.00,,,0.00,,2013-07-10 10:13:00,
2013-07-10 05:23:00,73.0,66.0,29.83,North,5,0.0,0.0,79,0.00,,,0.00,,2013-07-10 10:23:00,
2013-07-10 05:32:00,73.0,66.0,29.83,North,5,0.0,0.0,79,0.00,,,0.00,,2013-07-10 10:32:00,
2013-07-10 05:50:00,-999.0,-99.9,29.83,North,5,0.0,0.0,-999,-99.99,,,-99.99,,2013-07-10 10:50:00,
2013-07-10 06:00:00,-999.0,-99.9,29.83,North,5,0.0,0.0,-999,-99.99,,,-99.99,,2013-07-10 11:00:00,
2013-07-10 06:11:00,73.0,66.0,29.85,North,5,0.0,0.0,79,0.00,,,0.00,,2013-07-10 11:11:00,
2013-07-10 06:22:00,73.0,66.0,29.85,North,5,0.0,0.0,80,0.00,,,0.00,,2013-07-10 11:22:00,
2013-07-10 06:33:00,73.0,66.0,29.85,North,5,0.0,0.0,80,0.00,,,0.00,,2013-07-10 11:33:00,
2013-07-10 06:43:00,73.0,66.0,29.85,North,5,0.0,0.0,80,0.00,,,0.00,,2013-07-10 11:43:00,
2013-07-10 06:52:00,73.0,66.0,29.85,North,5,0.0,0.0,80,0.00,,,0.00,,2013-07-10 11:52:00,
2013-07-10 07:01:00,74.0,67.0,29.86,NE,36,0.0,4.0,78,0.00,,,0.00,,2013-07-10 12:01:00,
2013-07-10 07:11:00,74.0,67.0,29.86,NE,36,0.0,4.0,78,0.00,,,0.00,,2013-07-10 12:11:00,
2013-07-10 07:22:00,74.0,67.0,29.86,NE,36,0.0,4.0,78,0.00,,,0.00,,2013-07-10 12:22:00,
2013-07-10 07:33:00,74.0,67.0,29.87,ENE,65,1.0,6.0,79,0.00,,,0.00,,2013-07-10 12:33:00,
2013-07-10 07:43:00,74.0,67.0,29.87,ENE,65,1.0,6.0,79,0.00,,,0.00,,2013-07-10 12:43:00,
2013-07-10 07:53:00,73.0,66.0,29.86,NNE,17,2.0,8.0,79,0.00,,,0.00,,2013-07-10 12:53:00,
2013-07-10 08:01:00,74.0,67.0,29.85,NNE,26,1.0,8.0,79,0.00,,,0.00,,2013-07-10 13:01:00,
2013-07-10 08:11:00,74.0,67.0,29.85,NE,46,3.0,7.0,78,0.00,,,0.00,,2013-07-10 13:11:00,
2013-07-10 08:21:00,74.0,67.0,29.85,NE,46,3.0,7.0,78,0.00,,,0.00,,2013-07-10 13:21:00,
2013-07-10 08:32:00,74.0,67.0,29.85,NE,46,3.0,7.0,78,0.00,,,0.00,,2013-07-10 13:32:00,
2013-07-10 08:43:00,74.0,66.0,29.85,NNE,28,2.0,13.0,75,0.00,,,0.00,,2013-07-10 13:43:00,
2013-07-10 08:52:00,74.0,66.0,29.85,NNE,28,2.0,13.0,75,0.00,,,0.00,,2013-07-10 13:52:00,
2013-07-10 09:01:00,74.0,65.0,29.85,NE,53,5.0,11.0,73,0.00,,,0.00,,2013-07-10 14:01:00,
2013-07-10 09:11:00,74.0,64.0,29.86,NNE,28,4.0,14.0,71,0.00,,,0.00,,2013-07-10 14:11:00,
2013-07-10 09:22:00,75.0,64.0,29.87,ENE,64,3.0,14.0,69,0.00,,,0.00,,2013-07-10 14:22:00,
2013-07-10 09:33:00,75.0,64.0,29.87,ENE,64,3.0,14.0,69,0.00,,,0.00,,2013-07-10 14:33:00,
2013-07-10 09:43:00,75.0,64.0,29.87,ENE,64,3.0,14.0,69,0.00,,,0.00,,2013-07-10 14:43:00,
2013-07-10 09:53:00,75.0,64.0,29.87,ENE,64,3.0,14.0,69,0.00,,,0.00,,2013-07-10 14:53:00,
2013-07-10 10:01:00,74.0,65.0,29.88,NE,53,4.0,10.0,73,0.00,,,0.00,,2013-07-10 15:01:00,
2013-07-10 10:11:00,73.0,64.0,29.89,NNE,13,4.0,10.0,74,0.00,,,0.00,,2013-07-10 15:11:00,
2013-07-10 10:22:00,74.0,65.0,29.89,NNE,19,3.0,9.0,73,0.00,,,0.00,,2013-07-10 15:22:00,
2013-07-10 10:34:00,75.0,64.0,29.89,NNE,19,3.0,10.0,68,0.00,,,0.00,,2013-07-10 15:34:00,
2013-07-10 10:42:00,75.0,64.0,29.89,NNE,19,3.0,10.0,68,0.00,,,0.00,,2013-07-10 15:42:00,
2013-07-10 10:52:00,76.0,64.0,29.89,NE,42,2.0,8.0,66,0.00,,,0.00,,2013-07-10 15:52:00,
2013-07-10 11:01:00,77.0,64.0,29.89,North,355,1.0,8.0,64,0.00,,,0.00,,2013-07-10 16:01:00,
2013-07-10 11:11:00,77.0,64.0,29.89,North,355,1.0,8.0,64,0.00,,,0.00,,2013-07-10 16:11:00,
2013-07-10 11:22:00,78.0,63.0,29.90,NE,54,1.0,9.0,61,0.00,,,0.00,,2013-07-10 16:22:00,
2013-07-10 11:33:00,78.0,63.0,29.90,North,9,2.0,6.0,60,0.00,,,0.00,,2013-07-10 16:33:00,
2013-07-10 11:44:00,78.0,63.0,29.91,NNW,336,2.0,6.0,61,0.00,,,0.00,,2013-07-10 16:44:00,
2013-07-10 11:53:00,78.0,63.0,29.91,NNW,336,2.0,6.0,61,0.00,,,0.00,,2013-07-10 16:53:00,
2013-07-10 12:02:00,78.0,63.0,29.91,ENE,59,2.0,8.0,61,0.00,,,0.00,,2013-07-10 17:02:00,
2013-07-10 12:11:00,78.0,63.0,29.91,ENE,59,2.0,8.0,61,0.00,,,0.00,,2013-07-10 17:11:00,
2013-07-10 12:23:00,79.0,64.0,29.91,NE,46,0.0,9.0,61,0.00,,,0.00,,2013-07-10 17:23:00,
2013-07-10 12:32:00,79.0,64.0,29.91,NE,46,0.0,9.0,61,0.00,,,0.00,,2013-07-10 17:32:00,
2013-07-10 12:42:00,79.0,63.0,29.91,ENE,65,2.0,8.0,58,0.00,,,0.00,,2013-07-10 17:42:00,
2013-07-10 12:53:00,79.0,63.0,29.91,ENE,65,2.0,8.0,58,0.00,,,0.00,,2013-07-10 17:53:00,
2013-07-10 13:02:00,79.0,63.0,29.91,ENE,65,2.0,8.0,58,0.00,,,0.00,,2013-07-10 18:02:00,
2013-07-10 13:11:00,79.0,63.0,29.91,ENE,65,2.0,8.0,58,0.00,,,0.00,,2013-07-10 18:11:00,
2013-07-10 13:21:00,79.0,63.0,29.91,ENE,65,2.0,8.0,58,0.00,,,0.00,,2013-07-10 18:21:00,
2013-07-10 13:53:00,81.0,62.0,29.92,NNE,21,2.0,8.0,52,0.00,,,0.00,,2013-07-10 18:53:00,
2013-07-10 14:01:00,81.0,62.0,29.92,NNE,21,2.0,8.0,52,0.00,,,0.00,,2013-07-10 19:01:00,
2013-07-10 14:11:00,81.0,62.0,29.92,NNE,21,2.0,8.0,52,0.00,,,0.00,,2013-07-10 19:11:00,
2013-07-10 14:21:00,81.0,62.0,29.92,NNE,21,2.0,8.0,52,0.00,,,0.00,,2013-07-10 19:21:00,
2013-07-10 14:32:00,81.0,62.0,29.92,NNE,21,2.0,8.0,52,0.00,,,0.00,,2013-07-10 19:32:00,
2013-07-10 14:42:00,83.0,60.0,29.92,ENE,61,1.0,9.0,46,0.00,,,0.00,,2013-07-10 19:42:00,
2013-07-10 14:53:00,83.0,60.0,29.92,ENE,61,1.0,9.0,46,0.00,,,0.00,,2013-07-10 19:53:00,
2013-07-10 15:01:00,83.0,62.0,29.91,ENE,59,1.0,10.0,49,0.00,,,0.00,,2013-07-10 20:01:00,
2013-07-10 15:11:00,83.0,62.0,29.91,ENE,59,1.0,10.0,49,0.00,,,0.00,,2013-07-10 20:11:00,
2013-07-10 15:22:00,82.0,60.0,29.91,NE,47,2.0,6.0,47,0.00,,,0.00,,2013-07-10 20:22:00,
2013-07-10 15:32:00,82.0,60.0,29.90,NNE,26,3.0,7.0,47,0.00,,,0.00,,2013-07-10 20:32:00,
2013-07-10 15:43:00,82.0,61.0,29.90,NE,46,2.0,8.0,49,0.00,,,0.00,,2013-07-10 20:43:00,
2013-07-10 15:52:00,82.0,61.0,29.90,NE,46,2.0,8.0,49,0.00,,,0.00,,2013-07-10 20:52:00,
2013-07-10 16:01:00,83.0,58.0,29.89,NE,40,2.0,8.0,42,0.00,,,0.00,,2013-07-10 21:01:00,
2013-07-10 16:22:00,82.0,60.0,29.89,ENE,71,2.0,6.0,47,0.00,,,0.00,,2013-07-10 21:22:00,
2013-07-10 16:32:00,83.0,59.0,29.89,ENE,67,0.0,3.0,45,0.00,,,0.00,,2013-07-10 21:32:00,
2013-07-10 16:41:00,83.0,61.0,29.89,ENE,67,0.0,0.0,47,0.00,,,0.00,,2013-07-10 21:41:00,
2013-07-10 16:52:00,83.0,60.0,29.89,North,10,0.0,2.0,46,0.00,,,0.00,,2013-07-10 21:52:00,
2013-07-10 17:01:00,83.0,59.0,29.89,North,10,0.0,3.0,45,0.00,,,0.00,,2013-07-10 22:01:00,
2013-07-10 17:11:00,82.0,57.0,29.89,NNE,28,0.0,3.0,43,0.00,,,0.00,,2013-07-10 22:11:00,
2013-07-10 17:21:00,82.0,57.0,29.89,NNE,28,0.0,3.0,43,0.00,,,0.00,,2013-07-10 22:21:00,
2013-07-10 17:33:00,82.0,57.0,29.88,NNE,28,0.0,0.0,42,0.00,,,0.00,,2013-07-10 22:33:00,
2013-07-10 17:42:00,82.0,61.0,29.88,NNE,28,0.0,2.0,49,0.00,,,0.00,,2013-07-10 22:42:00,
2013-07-10 17:53:00,82.0,61.0,29.88,NNE,28,0.0,2.0,49,0.00,,,0.00,,2013-07-10 22:53:00,
2013-07-10 18:01:00,82.0,61.0,29.88,NNE,28,0.0,2.0,49,0.00,,,0.00,,2013-07-10 23:01:00,
2013-07-10 18:11:00,82.0,61.0,29.88,NNE,28,0.0,2.0,49,0.00,,,0.00,,2013-07-10 23:11:00,
2013-07-10 18:22:00,82.0,61.0,29.88,NNE,28,0.0,2.0,49,0.00,,,0.00,,2013-07-10 23:22:00,
2013-07-10 18:32:00,81.0,59.0,29.86,NNE,30,0.0,0.0,47,0.00,,,0.00,,2013-07-10 23:32:00,
2013-07-10 18:43:00,81.0,59.0,29.86,NNE,30,0.0,0.0,47,0.00,,,0.00,,2013-07-10 23:43:00,
2013-07-10 18:52:00,82.0,60.0,29.86,NNE,30,0.0,1.0,48,0.00,,,0.00,,2013-07-10 23:52:00,
2013-07-10 19:01:00,82.0,60.0,29.85,NNE,30,0.0,3.0,47,0.00,,,0.00,,2013-07-11 00:01:00,
2013-07-10 19:11:00,82.0,60.0,29.85,NNE,30,0.0,3.0,47,0.00,,,0.00,,2013-07-11 00:11:00,
2013-07-10 19:22:00,82.0,60.0,29.85,NNE,30,0.0,3.0,47,0.00,,,0.00,,2013-07-11 00:22:00,
2013-07-10 19:32:00,82.0,60.0,29.85,NNE,30,0.0,3.0,47,0.00,,,0.00,,2013-07-11 00:32:00,
2013-07-10 19:42:00,81.0,59.0,29.84,NNE,29,0.0,3.0,47,0.00,,,0.00,,2013-07-11 00:42:00,
2013-07-10 19:52:00,81.0,59.0,29.84,NNE,29,0.0,4.0,48,0.00,,,0.00,,2013-07-11 00:52:00,
2013-07-10 20:01:00,81.0,59.0,29.83,NNE,30,0.0,3.0,48,0.00,,,0.00,,2013-07-11 01:01:00,
2013-07-10 20:11:00,81.0,59.0,29.83,NNE,30,0.0,3.0,48,0.00,,,0.00,,2013-07-11 01:11:00,
2013-07-10 20:22:00,81.0,59.0,29.83,NNE,30,0.0,3.0,48,0.00,,,0.00,,2013-07-11 01:22:00,
2013-07-10 20:32:00,81.0,59.0,29.83,NNE,30,0.0,3.0,48,0.00,,,0.00,,2013-07-11 01:32:00,
2013-07-10 20:43:00,79.0,61.0,29.83,NNE,30,0.0,0.0,54,0.00,,,0.00,,2013-07-11 01:43:00,
2013-07-10 20:52:00,79.0,61.0,29.83,NNE,30,0.0,0.0,54,0.00,,,0.00,,2013-07-11 01:52:00,
2013-07-10 21:02:00,79.0,61.0,29.83,NNE,30,0.0,0.0,54,0.00,,,0.00,,2013-07-11 02:02:00,
2013-07-10 21:11:00,77.0,61.0,29.85,NNE,31,0.0,0.0,58,0.00,,,0.00,,2013-07-11 02:11:00,
2013-07-10 21:22:00,76.0,61.0,29.85,NNE,30,0.0,0.0,59,0.00,,,0.00,,2013-07-11 02:22:00,
2013-07-10 21:32:00,75.0,60.0,29.85,NNE,31,0.0,0.0,60,0.00,,,0.00,,2013-07-11 02:32:00,
2013-07-10 21:43:00,75.0,61.0,29.85,NNE,31,0.0,0.0,62,0.00,,,0.00,,2013-07-11 02:43:00,
2013-07-10 21:53:00,75.0,61.0,29.85,NNE,31,0.0,0.0,62,0.00,,,0.00,,2013-07-11 02:53:00,
2013-07-10 22:01:00,75.0,61.0,29.85,NNE,31,0.0,0.0,62,0.00,,,0.00,,2013-07-11 03:01:00,
2013-07-10 22:11:00,74.0,62.0,29.87,NNE,31,0.0,0.0,66,0.00,,,0.00,,2013-07-11 03:11:00,
2013-07-10 22:21:00,74.0,62.0,29.87,NNE,31,0.0,0.0,66,0.00,,,0.00,,2013-07-11 03:21:00,
2013-07-10 22:33:00,73.0,62.0,29.87,NNE,31,0.0,0.0,68,0.00,,,0.00,,2013-07-11 03:33:00,
2013-07-10 22:42:00,73.0,62.0,29.87,NNE,31,0.0,0.0,68,0.00,,,0.00,,2013-07-11 03:42:00,
2013-07-10 22:52:00,73.0,62.0,29.87,NNE,31,0.0,0.0,68,0.00,,,0.00,,2013-07-11 03:52:00,
2013-07-10 23:01:00,72.0,63.0,29.87,NNE,31,0.0,0.0,73,0.00,,,0.00,,2013-07-11 04:01:00,
2013-07-10 23:12:00,72.0,63.0,29.88,NNE,31,0.0,0.0,74,0.00,,,0.00,,2013-07-11 04:12:00,
2013-07-10 23:22:00,72.0,64.0,29.89,NNE,31,0.0,0.0,76,0.00,,,0.00,,2013-07-11 04:22:00,
2013-07-10 23:32:00,71.0,63.0,29.89,NNE,31,0.0,0.0,77,0.00,,,0.00,,2013-07-11 04:32:00,
2013-07-10 23:42:00,71.0,63.0,29.90,NNE,31,0.0,0.0,77,0.00,,,0.00,,2013-07-11 04:42:00,
2013-07-10 23:53:00,71.0,64.0,29.90,NNE,31,0.0,0.0,78,0.00,,,0.00,,2013-07-11 04:53:00,